Baldwinholme, United Kingdom
Current Conditions -  °F | °C
As of 11:20 AM on Tuesday 21 Oct 2014 (Local Time) from EGNC Reporting Station
Rain Showers Rain Showers  
Wind Chill: 40°   Ceiling: Unl
Heat Index: 48°   Visibility: 6mi
Dew Point: 39°   Wind: 26mph
Humidity: 71%   Direction: 280°W
Pressure: 29.44"   Gusts: 44mph
Location:  54.92°N, 3.1°W
Report Text: EGNC 211020Z 28023G38KT 260V340 9999 VCSH FEW015 SCT022 09/04 Q0997
Loading
Personal Weather Stations






























Interactive Weather Map
Tropical Storm Tracking
New forecast layout! Learn more

10-Day Weather Forecast

Advertisements
Track Severe Weather on mobile